sensor_id;sensor_type;location;lat;lon;timestamp;temperature;humidity
64209;DHT22;50527;52.414;13.226;2023-08-20T00:01:04;23.30;99.90
64209;DHT22;50527;52.414;13.226;2023-08-20T00:03:30;23.30;99.90
64209;DHT22;50527;52.414;13.226;2023-08-20T00:05:56;23.30;99.80
64209;DHT22;50527;52.414;13.226;2023-08-20T00:08:21;23.20;99.80
64209;DHT22;50527;52.414;13.226;2023-08-20T00:10:47;23.20;99.80
64209;DHT22;50527;52.414;13.226;2023-08-20T00:13:12;23.20;99.90
64209;DHT22;50527;52.414;13.226;2023-08-20T00:15:38;23.10;99.90
64209;DHT22;50527;52.414;13.226;2023-08-20T00:18:04;23.10;99.90
64209;DHT22;50527;52.414;13.226;2023-08-20T00:20:30;23.00;99.90
64209;DHT22;50527;52.414;13.226;2023-08-20T00:22:55;23.00;99.90
64209;DHT22;50527;52.414;13.226;2023-08-20T00:25:21;23.00;99.90
64209;DHT22;50527;52.414;13.226;2023-08-20T00:27:46;22.90;99.90
64209;DHT22;50527;52.414;13.226;2023-08-20T00:30:12;22.80;99.80
64209;DHT22;50527;52.414;13.226;2023-08-20T00:32:37;22.80;99.80
64209;DHT22;50527;52.414;13.226;2023-08-20T00:35:04;22.80;99.70
64209;DHT22;50527;52.414;13.226;2023-08-20T00:37:31;22.70;99.90
64209;DHT22;50527;52.414;13.226;2023-08-20T00:39:56;22.80;99.90
64209;DHT22;50527;52.414;13.226;2023-08-20T00:42:23;22.80;99.90
64209;DHT22;50527;52.414;13.226;2023-08-20T00:44:51;22.80;99.90
64209;DHT22;50527;52.414;13.226;2023-08-20T00:47:18;22.90;99.90
64209;DHT22;50527;52.414;13.226;2023-08-20T00:49:43;22.90;99.40
64209;DHT22;50527;52.414;13.226;2023-08-20T00:52:09;23.00;99.30
64209;DHT22;50527;52.414;13.226;2023-08-20T00:54:35;23.10;99.10
64209;DHT22;50527;52.414;13.226;2023-08-20T00:57:02;23.20;98.70
64209;DHT22;50527;52.414;13.226;2023-08-20T00:59:30;23.40;98.30
64209;DHT22;50527;52.414;13.226;2023-08-20T01:01:57;23.50;98.30
64209;DHT22;50527;52.414;13.226;2023-08-20T01:04:22;23.50;98.20
64209;DHT22;50527;52.414;13.226;2023-08-20T01:07:00;23.60;98.20
64209;DHT22;50527;52.414;13.226;2023-08-20T01:10:04;23.60;98.00
64209;DHT22;50527;52.414;13.226;2023-08-20T01:12:34;23.70;97.80
64209;DHT22;50527;52.414;13.226;2023-08-20T01:14:59;23.70;97.60
64209;DHT22;50527;52.414;13.226;2023-08-20T01:17:25;23.70;97.60
64209;DHT22;50527;52.414;13.226;2023-08-20T01:19:50;23.70;97.60
64209;DHT22;50527;52.414;13.226;2023-08-20T01:25:11;23.70;97.60
64209;DHT22;50527;52.414;13.226;2023-08-20T01:28:24;23.70;97.70
64209;DHT22;50527;52.414;13.226;2023-08-20T01:30:50;23.70;97.80
64209;DHT22;50527;52.414;13.226;2023-08-20T01:33:17;23.70;97.60
64209;DHT22;50527;52.414;13.226;2023-08-20T01:35:43;23.70;97.40
64209;DHT22;50527;52.414;13.226;2023-08-20T01:38:09;23.70;97.30
64209;DHT22;50527;52.414;13.226;2023-08-20T01:40:34;23.70;97.30
64209;DHT22;50527;52.414;13.226;2023-08-20T01:43:00;23.60;97.60
64209;DHT22;50527;52.414;13.226;2023-08-20T01:45:25;23.70;97.70
64209;DHT22;50527;52.414;13.226;2023-08-20T01:47:51;23.60;97.70
64209;DHT22;50527;52.414;13.226;2023-08-20T01:50:17;23.60;98.10
64209;DHT22;50527;52.414;13.226;2023-08-20T01:52:43;23.50;98.40
64209;DHT22;50527;52.414;13.226;2023-08-20T01:55:08;23.50;98.60
64209;DHT22;50527;52.414;13.226;2023-08-20T01:57:34;23.50;98.40
64209;DHT22;50527;52.414;13.226;2023-08-20T01:59:59;23.50;98.30
64209;DHT22;50527;52.414;13.226;2023-08-20T02:02:25;23.50;98.70
64209;DHT22;50527;52.414;13.226;2023-08-20T02:04:50;23.50;98.30
64209;DHT22;50527;52.414;13.226;2023-08-20T02:07:48;23.50;98.30
64209;DHT22;50527;52.414;13.226;2023-08-20T02:10:14;23.50;98.50
64209;DHT22;50527;52.414;13.226;2023-08-20T02:12:40;23.40;98.70
64209;DHT22;50527;52.414;13.226;2023-08-20T02:15:07;23.40;98.80
64209;DHT22;50527;52.414;13.226;2023-08-20T02:17:33;23.40;98.80
64209;DHT22;50527;52.414;13.226;2023-08-20T02:20:04;23.30;98.90
64209;DHT22;50527;52.414;13.226;2023-08-20T02:22:30;23.30;98.90
64209;DHT22;50527;52.414;13.226;2023-08-20T02:28:38;23.20;99.30
64209;DHT22;50527;52.414;13.226;2023-08-20T02:34:25;23.20;99.50
64209;DHT22;50527;52.414;13.226;2023-08-20T02:36:51;23.20;99.10
64209;DHT22;50527;52.414;13.226;2023-08-20T02:42:38;23.20;99.40
64209;DHT22;50527;52.414;13.226;2023-08-20T02:45:41;23.20;99.10
64209;DHT22;50527;52.414;13.226;2023-08-20T02:51:29;23.20;99.10
64209;DHT22;50527;52.414;13.226;2023-08-20T02:53:54;23.10;99.20
64209;DHT22;50527;52.414;13.226;2023-08-20T02:56:20;23.10;99.40
64209;DHT22;50527;52.414;13.226;2023-08-20T02:58:45;23.10;99.50
64209;DHT22;50527;52.414;13.226;2023-08-20T03:01:18;23.10;99.50
64209;DHT22;50527;52.414;13.226;2023-08-20T03:03:44;23.10;99.70
64209;DHT22;50527;52.414;13.226;2023-08-20T03:06:10;23.00;99.90
64209;DHT22;50527;52.414;13.226;2023-08-20T03:08:35;23.00;99.90
64209;DHT22;50527;52.414;13.226;2023-08-20T03:11:01;23.00;99.90
64209;DHT22;50527;52.414;13.226;2023-08-20T03:13:26;22.90;99.90
64209;DHT22;50527;52.414;13.226;2023-08-20T03:15:51;22.90;99.90
64209;DHT22;50527;52.414;13.226;2023-08-20T03:18:17;22.90;99.90
64209;DHT22;50527;52.414;13.226;2023-08-20T03:20:42;22.90;99.90
64209;DHT22;50527;52.414;13.226;2023-08-20T03:23:08;22.90;99.90
64209;DHT22;50527;52.414;13.226;2023-08-20T03:25:33;22.90;99.90
64209;DHT22;50527;52.414;13.226;2023-08-20T03:27:59;22.90;99.90
64209;DHT22;50527;52.414;13.226;2023-08-20T03:30:25;22.80;99.90
64209;DHT22;50527;52.414;13.226;2023-08-20T03:32:50;22.80;99.90
64209;DHT22;50527;52.414;13.226;2023-08-20T03:35:16;22.80;99.90
64209;DHT22;50527;52.414;13.226;2023-08-20T03:37:41;22.70;99.90
64209;DHT22;50527;52.414;13.226;2023-08-20T03:40:07;22.70;99.90
64209;DHT22;50527;52.414;13.226;2023-08-20T03:42:33;22.70;99.90
64209;DHT22;50527;52.414;13.226;2023-08-20T03:44:58;22.70;99.90
64209;DHT22;50527;52.414;13.226;2023-08-20T03:47:24;22.70;99.90
64209;DHT22;50527;52.414;13.226;2023-08-20T03:49:50;22.70;99.90
64209;DHT22;50527;52.414;13.226;2023-08-20T03:52:15;22.70;99.90
64209;DHT22;50527;52.414;13.226;2023-08-20T03:54:41;22.60;99.90
64209;DHT22;50527;52.414;13.226;2023-08-20T03:57:06;22.60;99.90
64209;DHT22;50527;52.414;13.226;2023-08-20T03:59:33;22.60;99.90
64209;DHT22;50527;52.414;13.226;2023-08-20T04:01:58;22.60;99.90
64209;DHT22;50527;52.414;13.226;2023-08-20T04:04:24;22.70;99.90
64209;DHT22;50527;52.414;13.226;2023-08-20T04:06:50;22.60;99.90
64209;DHT22;50527;52.414;13.226;2023-08-20T04:09:16;22.60;99.90
64209;DHT22;50527;52.414;13.226;2023-08-20T04:11:42;22.50;99.90
64209;DHT22;50527;52.414;13.226;2023-08-20T04:14:07;22.50;99.90
64209;DHT22;50527;52.414;13.226;2023-08-20T04:16:33;22.50;99.90
64209;DHT22;50527;52.414;13.226;2023-08-20T04:18:58;22.40;99.90
64209;DHT22;50527;52.414;13.226;2023-08-20T04:21:24;22.40;99.90
64209;DHT22;50527;52.414;13.226;2023-08-20T04:23:49;22.40;99.90
64209;DHT22;50527;52.414;13.226;2023-08-20T04:26:15;22.40;99.90
64209;DHT22;50527;52.414;13.226;2023-08-20T04:28:40;22.40;99.90
64209;DHT22;50527;52.414;13.226;2023-08-20T04:31:06;22.50;99.90
64209;DHT22;50527;52.414;13.226;2023-08-20T04:33:31;22.50;99.90
64209;DHT22;50527;52.414;13.226;2023-08-20T04:35:57;22.50;99.90
64209;DHT22;50527;52.414;13.226;2023-08-20T04:38:22;22.50;99.90
64209;DHT22;50527;52.414;13.226;2023-08-20T04:40:49;22.60;99.90
64209;DHT22;50527;52.414;13.226;2023-08-20T04:43:15;22.60;99.90
64209;DHT22;50527;52.414;13.226;2023-08-20T04:45:41;22.60;99.90
64209;DHT22;50527;52.414;13.226;2023-08-20T04:48:07;22.50;99.90
64209;DHT22;50527;52.414;13.226;2023-08-20T04:50:32;22.50;99.90
64209;DHT22;50527;52.414;13.226;2023-08-20T04:52:58;22.50;99.90
64209;DHT22;50527;52.414;13.226;2023-08-20T04:55:29;22.50;99.90
64209;DHT22;50527;52.414;13.226;2023-08-20T04:57:54;22.50;99.90
64209;DHT22;50527;52.414;13.226;2023-08-20T05:00:21;22.50;99.90
64209;DHT22;50527;52.414;13.226;2023-08-20T05:02:47;22.50;99.90
64209;DHT22;50527;52.414;13.226;2023-08-20T05:05:12;22.50;99.90
64209;DHT22;50527;52.414;13.226;2023-08-20T05:07:38;22.50;99.90
64209;DHT22;50527;52.414;13.226;2023-08-20T05:10:04;22.60;99.90
64209;DHT22;50527;52.414;13.226;2023-08-20T05:12:30;22.60;99.90
64209;DHT22;50527;52.414;13.226;2023-08-20T05:14:55;22.60;99.90
64209;DHT22;50527;52.414;13.226;2023-08-20T05:17:22;22.60;99.90
64209;DHT22;50527;52.414;13.226;2023-08-20T05:19:47;22.70;99.90
64209;DHT22;50527;52.414;13.226;2023-08-20T05:22:13;22.70;99.90
64209;DHT22;50527;52.414;13.226;2023-08-20T05:24:38;22.90;99.90
64209;DHT22;50527;52.414;13.226;2023-08-20T05:27:07;22.80;99.90
64209;DHT22;50527;52.414;13.226;2023-08-20T05:29:33;22.90;99.90
64209;DHT22;50527;52.414;13.226;2023-08-20T05:31:59;22.80;99.90
64209;DHT22;50527;52.414;13.226;2023-08-20T05:34:24;22.80;99.90
64209;DHT22;50527;52.414;13.226;2023-08-20T05:36:50;22.80;99.90
64209;DHT22;50527;52.414;13.226;2023-08-20T05:39:16;22.80;99.90
64209;DHT22;50527;52.414;13.226;2023-08-20T05:41:41;22.80;99.90
64209;DHT22;50527;52.414;13.226;2023-08-20T05:44:07;22.70;99.90
64209;DHT22;50527;52.414;13.226;2023-08-20T05:46:32;22.80;99.90
64209;DHT22;50527;52.414;13.226;2023-08-20T05:48:58;22.90;99.90
64209;DHT22;50527;52.414;13.226;2023-08-20T05:51:23;23.00;99.90
64209;DHT22;50527;52.414;13.226;2023-08-20T05:53:49;23.00;98.60
64209;DHT22;50527;52.414;13.226;2023-08-20T05:56:14;23.00;98.50
64209;DHT22;50527;52.414;13.226;2023-08-20T05:58:40;23.00;98.60
64209;DHT22;50527;52.414;13.226;2023-08-20T06:01:05;22.80;98.60
64209;DHT22;50527;52.414;13.226;2023-08-20T06:03:31;22.80;98.80
64209;DHT22;50527;52.414;13.226;2023-08-20T06:05:57;22.70;98.80
64209;DHT22;50527;52.414;13.226;2023-08-20T06:08:23;22.70;97.70
64209;DHT22;50527;52.414;13.226;2023-08-20T06:10:49;22.70;98.20
64209;DHT22;50527;52.414;13.226;2023-08-20T06:13:14;22.70;97.10
64209;DHT22;50527;52.414;13.226;2023-08-20T06:15:40;22.60;97.90
64209;DHT22;50527;52.414;13.226;2023-08-20T06:18:05;22.70;97.60
64209;DHT22;50527;52.414;13.226;2023-08-20T06:20:31;22.70;96.60
64209;DHT22;50527;52.414;13.226;2023-08-20T06:22:56;22.70;96.30
64209;DHT22;50527;52.414;13.226;2023-08-20T06:25:22;22.70;96.60
64209;DHT22;50527;52.414;13.226;2023-08-20T06:27:47;22.80;96.60
64209;DHT22;50527;52.414;13.226;2023-08-20T06:30:13;22.80;96.40
64209;DHT22;50527;52.414;13.226;2023-08-20T06:32:38;22.90;95.90
64209;DHT22;50527;52.414;13.226;2023-08-20T06:35:04;22.90;95.90
64209;DHT22;50527;52.414;13.226;2023-08-20T06:37:29;23.00;95.40
64209;DHT22;50527;52.414;13.226;2023-08-20T06:39:55;23.00;95.20
64209;DHT22;50527;52.414;13.226;2023-08-20T06:42:20;23.00;95.70
64209;DHT22;50527;52.414;13.226;2023-08-20T06:44:46;23.10;95.30
64209;DHT22;50527;52.414;13.226;2023-08-20T06:47:11;23.10;95.00
64209;DHT22;50527;52.414;13.226;2023-08-20T06:49:37;23.10;94.30
64209;DHT22;50527;52.414;13.226;2023-08-20T06:52:02;23.00;93.90
64209;DHT22;50527;52.414;13.226;2023-08-20T06:54:28;23.00;94.10
64209;DHT22;50527;52.414;13.226;2023-08-20T06:56:54;23.10;92.90
64209;DHT22;50527;52.414;13.226;2023-08-20T06:59:20;23.00;93.20
64209;DHT22;50527;52.414;13.226;2023-08-20T07:01:45;23.00;93.20
64209;DHT22;50527;52.414;13.226;2023-08-20T07:04:11;23.00;92.50
64209;DHT22;50527;52.414;13.226;2023-08-20T07:06:38;23.00;91.70
64209;DHT22;50527;52.414;13.226;2023-08-20T07:09:04;23.50;90.70
64209;DHT22;50527;52.414;13.226;2023-08-20T07:11:29;24.30;86.50
64209;DHT22;50527;52.414;13.226;2023-08-20T07:13:55;24.60;84.50
64209;DHT22;50527;52.414;13.226;2023-08-20T07:16:20;24.70;82.10
64209;DHT22;50527;52.414;13.226;2023-08-20T07:18:46;24.50;82.00
64209;DHT22;50527;52.414;13.226;2023-08-20T07:21:11;24.40;82.60
64209;DHT22;50527;52.414;13.226;2023-08-20T07:23:37;24.40;83.00
64209;DHT22;50527;52.414;13.226;2023-08-20T07:26:07;24.30;82.60
64209;DHT22;50527;52.414;13.226;2023-08-20T07:28:33;24.10;82.80
64209;DHT22;50527;52.414;13.226;2023-08-20T07:31:18;24.10;82.90
64209;DHT22;50527;52.414;13.226;2023-08-20T07:33:47;24.00;84.00
64209;DHT22;50527;52.414;13.226;2023-08-20T07:36:13;24.10;83.60
64209;DHT22;50527;52.414;13.226;2023-08-20T07:38:40;24.30;83.00
64209;DHT22;50527;52.414;13.226;2023-08-20T07:41:06;24.20;82.70
64209;DHT22;50527;52.414;13.226;2023-08-20T07:43:32;24.30;82.10
64209;DHT22;50527;52.414;13.226;2023-08-20T07:45:57;24.40;80.70
64209;DHT22;50527;52.414;13.226;2023-08-20T07:48:23;24.60;79.60
64209;DHT22;50527;52.414;13.226;2023-08-20T07:50:48;25.30;77.00
64209;DHT22;50527;52.414;13.226;2023-08-20T07:53:14;25.90;73.10
64209;DHT22;50527;52.414;13.226;2023-08-20T07:55:39;26.20;69.70
64209;DHT22;50527;52.414;13.226;2023-08-20T07:58:05;26.10;70.10
64209;DHT22;50527;52.414;13.226;2023-08-20T08:00:30;28.90;62.30
64209;DHT22;50527;52.414;13.226;2023-08-20T08:02:56;29.40;58.30
64209;DHT22;50527;52.414;13.226;2023-08-20T08:05:21;28.90;57.30
64209;DHT22;50527;52.414;13.226;2023-08-20T08:07:47;28.70;59.30
64209;DHT22;50527;52.414;13.226;2023-08-20T08:10:12;28.70;57.60
64209;DHT22;50527;52.414;13.226;2023-08-20T08:12:38;28.50;58.50
64209;DHT22;50527;52.414;13.226;2023-08-20T08:15:03;28.20;58.90
64209;DHT22;50527;52.414;13.226;2023-08-20T08:17:29;30.00;56.50
64209;DHT22;50527;52.414;13.226;2023-08-20T08:19:54;33.00;52.10
64209;DHT22;50527;52.414;13.226;2023-08-20T08:22:20;33.90;47.60
64209;DHT22;50527;52.414;13.226;2023-08-20T08:24:46;31.80;49.00
64209;DHT22;50527;52.414;13.226;2023-08-20T08:27:11;30.30;51.50
64209;DHT22;50527;52.414;13.226;2023-08-20T08:29:37;29.70;53.00
64209;DHT22;50527;52.414;13.226;2023-08-20T08:32:03;29.30;53.90
64209;DHT22;50527;52.414;13.226;2023-08-20T08:34:28;29.20;54.70
64209;DHT22;50527;52.414;13.226;2023-08-20T08:36:54;29.30;54.30
64209;DHT22;50527;52.414;13.226;2023-08-20T08:39:19;29.30;55.90
64209;DHT22;50527;52.414;13.226;2023-08-20T08:41:49;29.30;54.20
64209;DHT22;50527;52.414;13.226;2023-08-20T08:44:15;28.80;55.10
64209;DHT22;50527;52.414;13.226;2023-08-20T08:46:42;28.30;55.50
64209;DHT22;50527;52.414;13.226;2023-08-20T08:49:45;27.90;56.50
64209;DHT22;50527;52.414;13.226;2023-08-20T08:52:12;27.60;57.90
64209;DHT22;50527;52.414;13.226;2023-08-20T08:54:38;27.40;59.00
64209;DHT22;50527;52.414;13.226;2023-08-20T08:57:04;27.40;59.20
64209;DHT22;50527;52.414;13.226;2023-08-20T08:59:30;27.40;59.40
64209;DHT22;50527;52.414;13.226;2023-08-20T09:01:56;27.30;60.70
64209;DHT22;50527;52.414;13.226;2023-08-20T09:04:22;27.10;61.20
64209;DHT22;50527;52.414;13.226;2023-08-20T09:06:50;27.40;58.90
64209;DHT22;50527;52.414;13.226;2023-08-20T09:09:20;27.30;61.40
64209;DHT22;50527;52.414;13.226;2023-08-20T09:11:47;27.10;61.40
64209;DHT22;50527;52.414;13.226;2023-08-20T09:14:28;27.00;60.70
64209;DHT22;50527;52.414;13.226;2023-08-20T09:16:57;26.80;61.00
64209;DHT22;50527;52.414;13.226;2023-08-20T09:19:23;27.00;61.60
64209;DHT22;50527;52.414;13.226;2023-08-20T09:21:48;27.40;60.40
64209;DHT22;50527;52.414;13.226;2023-08-20T09:24:14;27.90;58.40
64209;DHT22;50527;52.414;13.226;2023-08-20T09:26:45;28.60;58.60
64209;DHT22;50527;52.414;13.226;2023-08-20T09:29:11;29.20;57.50
64209;DHT22;50527;52.414;13.226;2023-08-20T09:31:38;30.00;54.40
64209;DHT22;50527;52.414;13.226;2023-08-20T09:34:04;30.50;52.80
64209;DHT22;50527;52.414;13.226;2023-08-20T09:36:34;30.60;52.40
64209;DHT22;50527;52.414;13.226;2023-08-20T09:39:01;30.80;52.10
64209;DHT22;50527;52.414;13.226;2023-08-20T09:41:28;30.90;51.30
64209;DHT22;50527;52.414;13.226;2023-08-20T09:43:58;31.50;50.30
64209;DHT22;50527;52.414;13.226;2023-08-20T09:46:27;33.50;48.60
64209;DHT22;50527;52.414;13.226;2023-08-20T09:48:56;35.50;45.70
64209;DHT22;50527;52.414;13.226;2023-08-20T09:51:26;36.90;43.60
64209;DHT22;50527;52.414;13.226;2023-08-20T09:56:39;37.00;41.60
64209;DHT22;50527;52.414;13.226;2023-08-20T09:59:06;37.40;41.20
64209;DHT22;50527;52.414;13.226;2023-08-20T10:01:32;38.00;40.10
64209;DHT22;50527;52.414;13.226;2023-08-20T10:03:58;38.20;39.80
64209;DHT22;50527;52.414;13.226;2023-08-20T10:06:25;38.20;39.10
64209;DHT22;50527;52.414;13.226;2023-08-20T10:08:51;37.80;39.60
64209;DHT22;50527;52.414;13.226;2023-08-20T10:11:16;37.40;39.40
64209;DHT22;50527;52.414;13.226;2023-08-20T10:13:42;36.70;40.30
64209;DHT22;50527;52.414;13.226;2023-08-20T10:16:08;36.00;41.30
64209;DHT22;50527;52.414;13.226;2023-08-20T10:18:37;36.90;40.20
64209;DHT22;50527;52.414;13.226;2023-08-20T10:21:02;37.00;40.40
64209;DHT22;50527;52.414;13.226;2023-08-20T10:23:28;37.30;40.00
64209;DHT22;50527;52.414;13.226;2023-08-20T10:25:54;37.20;39.50
64209;DHT22;50527;52.414;13.226;2023-08-20T10:28:25;37.50;39.40
64209;DHT22;50527;52.414;13.226;2023-08-20T10:31:12;37.00;40.40
64209;DHT22;50527;52.414;13.226;2023-08-20T10:33:48;36.40;42.20
64209;DHT22;50527;52.414;13.226;2023-08-20T10:36:16;35.00;42.20
64209;DHT22;50527;52.414;13.226;2023-08-20T10:38:44;34.00;43.00
64209;DHT22;50527;52.414;13.226;2023-08-20T10:41:11;32.80;45.00
64209;DHT22;50527;52.414;13.226;2023-08-20T10:43:39;31.80;46.60
64209;DHT22;50527;52.414;13.226;2023-08-20T10:46:16;31.20;49.10
64209;DHT22;50527;52.414;13.226;2023-08-20T10:48:42;30.80;48.60
64209;DHT22;50527;52.414;13.226;2023-08-20T10:56:47;30.30;49.30
64209;DHT22;50527;52.414;13.226;2023-08-20T11:01:39;29.80;50.10
64209;DHT22;50527;52.414;13.226;2023-08-20T11:04:05;29.80;50.80
64209;DHT22;50527;52.414;13.226;2023-08-20T11:06:32;29.80;50.50
64209;DHT22;50527;52.414;13.226;2023-08-20T11:08:58;29.80;50.20
64209;DHT22;50527;52.414;13.226;2023-08-20T11:11:25;29.70;50.30
64209;DHT22;50527;52.414;13.226;2023-08-20T11:13:50;29.60;51.00
64209;DHT22;50527;52.414;13.226;2023-08-20T11:16:16;29.60;52.10
64209;DHT22;50527;52.414;13.226;2023-08-20T11:18:42;29.50;50.90
64209;DHT22;50527;52.414;13.226;2023-08-20T11:21:08;29.50;51.50
64209;DHT22;50527;52.414;13.226;2023-08-20T11:23:34;29.20;51.70
64209;DHT22;50527;52.414;13.226;2023-08-20T11:26:00;29.20;53.00
64209;DHT22;50527;52.414;13.226;2023-08-20T11:28:29;29.20;53.20
64209;DHT22;50527;52.414;13.226;2023-08-20T11:30:54;29.10;53.00
64209;DHT22;50527;52.414;13.226;2023-08-20T11:33:22;29.20;53.80
64209;DHT22;50527;52.414;13.226;2023-08-20T11:35:48;29.20;52.30
64209;DHT22;50527;52.414;13.226;2023-08-20T11:38:14;29.10;52.40
64209;DHT22;50527;52.414;13.226;2023-08-20T11:40:39;29.00;52.90
64209;DHT22;50527;52.414;13.226;2023-08-20T11:43:05;29.00;52.70
64209;DHT22;50527;52.414;13.226;2023-08-20T11:45:31;29.10;51.40
64209;DHT22;50527;52.414;13.226;2023-08-20T11:47:58;29.10;52.00
64209;DHT22;50527;52.414;13.226;2023-08-20T11:50:23;29.10;51.80
64209;DHT22;50527;52.414;13.226;2023-08-20T11:52:49;29.10;51.70
64209;DHT22;50527;52.414;13.226;2023-08-20T11:55:22;29.00;51.00
64209;DHT22;50527;52.414;13.226;2023-08-20T11:57:51;28.90;52.40
64209;DHT22;50527;52.414;13.226;2023-08-20T12:00:27;29.00;51.70
64209;DHT22;50527;52.414;13.226;2023-08-20T12:02:54;29.00;52.40
64209;DHT22;50527;52.414;13.226;2023-08-20T12:05:26;29.10;52.50
64209;DHT22;50527;52.414;13.226;2023-08-20T12:07:59;29.10;52.70
64209;DHT22;50527;52.414;13.226;2023-08-20T12:10:27;29.10;52.60
64209;DHT22;50527;52.414;13.226;2023-08-20T12:12:54;29.10;51.30
64209;DHT22;50527;52.414;13.226;2023-08-20T12:15:21;29.10;52.10
64209;DHT22;50527;52.414;13.226;2023-08-20T12:18:01;29.20;50.70
64209;DHT22;50527;52.414;13.226;2023-08-20T12:20:28;29.20;49.60
64209;DHT22;50527;52.414;13.226;2023-08-20T12:22:54;29.10;49.90
64209;DHT22;50527;52.414;13.226;2023-08-20T12:25:19;29.10;50.10
64209;DHT22;50527;52.414;13.226;2023-08-20T12:27:45;29.10;49.60
64209;DHT22;50527;52.414;13.226;2023-08-20T12:30:11;29.20;49.10
64209;DHT22;50527;52.414;13.226;2023-08-20T12:32:36;29.20;49.20
64209;DHT22;50527;52.414;13.226;2023-08-20T12:35:02;29.20;49.40
64209;DHT22;50527;52.414;13.226;2023-08-20T12:37:28;29.20;49.20
64209;DHT22;50527;52.414;13.226;2023-08-20T12:39:53;29.10;49.20
64209;DHT22;50527;52.414;13.226;2023-08-20T12:42:19;29.20;49.00
64209;DHT22;50527;52.414;13.226;2023-08-20T12:44:44;29.10;47.70
64209;DHT22;50527;52.414;13.226;2023-08-20T12:47:10;29.20;47.40
64209;DHT22;50527;52.414;13.226;2023-08-20T12:49:35;29.10;47.10
64209;DHT22;50527;52.414;13.226;2023-08-20T12:52:01;29.20;47.80
64209;DHT22;50527;52.414;13.226;2023-08-20T12:54:26;29.10;47.80
64209;DHT22;50527;52.414;13.226;2023-08-20T12:56:52;29.10;47.40
64209;DHT22;50527;52.414;13.226;2023-08-20T12:59:17;29.10;47.10
64209;DHT22;50527;52.414;13.226;2023-08-20T13:01:43;29.20;47.70
64209;DHT22;50527;52.414;13.226;2023-08-20T13:04:09;29.20;47.00
64209;DHT22;50527;52.414;13.226;2023-08-20T13:06:35;29.20;48.20
64209;DHT22;50527;52.414;13.226;2023-08-20T13:09:01;29.20;48.50
64209;DHT22;50527;52.414;13.226;2023-08-20T13:11:28;29.20;48.50
64209;DHT22;50527;52.414;13.226;2023-08-20T13:13:55;29.30;47.30
64209;DHT22;50527;52.414;13.226;2023-08-20T13:16:21;29.30;47.40
64209;DHT22;50527;52.414;13.226;2023-08-20T13:18:47;29.40;47.40
64209;DHT22;50527;52.414;13.226;2023-08-20T13:21:12;29.30;47.30
64209;DHT22;50527;52.414;13.226;2023-08-20T13:23:38;29.20;47.20
64209;DHT22;50527;52.414;13.226;2023-08-20T13:26:03;29.00;47.10
64209;DHT22;50527;52.414;13.226;2023-08-20T13:28:29;28.90;48.10
64209;DHT22;50527;52.414;13.226;2023-08-20T13:30:55;28.80;47.30
64209;DHT22;50527;52.414;13.226;2023-08-20T13:33:20;28.90;47.90
64209;DHT22;50527;52.414;13.226;2023-08-20T13:35:46;29.00;47.10
64209;DHT22;50527;52.414;13.226;2023-08-20T13:38:11;29.00;47.50
64209;DHT22;50527;52.414;13.226;2023-08-20T13:40:37;28.90;46.30
64209;DHT22;50527;52.414;13.226;2023-08-20T13:43:02;28.90;47.30
64209;DHT22;50527;52.414;13.226;2023-08-20T13:45:28;28.90;47.10
64209;DHT22;50527;52.414;13.226;2023-08-20T13:47:53;28.80;47.70
64209;DHT22;50527;52.414;13.226;2023-08-20T13:50:19;28.80;48.10
64209;DHT22;50527;52.414;13.226;2023-08-20T13:52:44;28.70;49.20
64209;DHT22;50527;52.414;13.226;2023-08-20T13:55:10;28.70;50.50
64209;DHT22;50527;52.414;13.226;2023-08-20T13:57:35;28.60;50.30
64209;DHT22;50527;52.414;13.226;2023-08-20T14:00:01;28.70;50.40
64209;DHT22;50527;52.414;13.226;2023-08-20T14:02:32;28.70;50.00
64209;DHT22;50527;52.414;13.226;2023-08-20T14:04:58;28.70;50.00
64209;DHT22;50527;52.414;13.226;2023-08-20T14:07:24;28.70;49.50
64209;DHT22;50527;52.414;13.226;2023-08-20T14:09:49;28.80;47.70
64209;DHT22;50527;52.414;13.226;2023-08-20T14:12:15;28.80;50.40
64209;DHT22;50527;52.414;13.226;2023-08-20T14:14:40;28.90;48.10
64209;DHT22;50527;52.414;13.226;2023-08-20T14:17:06;28.90;46.60
64209;DHT22;50527;52.414;13.226;2023-08-20T14:19:31;28.80;47.30
64209;DHT22;50527;52.414;13.226;2023-08-20T14:21:57;28.70;47.30
64209;DHT22;50527;52.414;13.226;2023-08-20T14:24:22;28.70;48.10
64209;DHT22;50527;52.414;13.226;2023-08-20T14:26:48;28.70;47.80
64209;DHT22;50527;52.414;13.226;2023-08-20T14:29:13;28.70;45.90
64209;DHT22;50527;52.414;13.226;2023-08-20T14:31:39;28.70;46.00
64209;DHT22;50527;52.414;13.226;2023-08-20T14:34:04;28.70;46.30
64209;DHT22;50527;52.414;13.226;2023-08-20T14:36:31;28.60;45.80
64209;DHT22;50527;52.414;13.226;2023-08-20T14:38:56;28.60;45.70
64209;DHT22;50527;52.414;13.226;2023-08-20T14:54:50;28.80;45.70
64209;DHT22;50527;52.414;13.226;2023-08-20T14:57:17;28.90;45.90
64209;DHT22;50527;52.414;13.226;2023-08-20T14:59:51;28.90;45.80
64209;DHT22;50527;52.414;13.226;2023-08-20T15:02:17;28.70;45.80
64209;DHT22;50527;52.414;13.226;2023-08-20T15:04:43;28.70;45.50
64209;DHT22;50527;52.414;13.226;2023-08-20T15:07:08;28.70;45.70
64209;DHT22;50527;52.414;13.226;2023-08-20T15:09:34;28.60;45.70
64209;DHT22;50527;52.414;13.226;2023-08-20T15:11:59;28.60;45.90
64209;DHT22;50527;52.414;13.226;2023-08-20T15:17:47;28.50;46.70
64209;DHT22;50527;52.414;13.226;2023-08-20T15:20:15;28.50;46.20
64209;DHT22;50527;52.414;13.226;2023-08-20T15:22:41;28.60;45.40
64209;DHT22;50527;52.414;13.226;2023-08-20T15:25:07;28.60;46.20
64209;DHT22;50527;52.414;13.226;2023-08-20T15:27:35;28.50;46.40
64209;DHT22;50527;52.414;13.226;2023-08-20T15:30:01;28.40;46.10
64209;DHT22;50527;52.414;13.226;2023-08-20T15:32:28;28.40;46.80
64209;DHT22;50527;52.414;13.226;2023-08-20T15:34:53;28.30;47.40
64209;DHT22;50527;52.414;13.226;2023-08-20T15:37:19;28.20;46.50
64209;DHT22;50527;52.414;13.226;2023-08-20T15:39:44;28.30;47.20
64209;DHT22;50527;52.414;13.226;2023-08-20T15:42:10;28.20;47.50
64209;DHT22;50527;52.414;13.226;2023-08-20T15:44:35;28.10;47.20
64209;DHT22;50527;52.414;13.226;2023-08-20T15:47:01;28.00;47.90
64209;DHT22;50527;52.414;13.226;2023-08-20T15:49:26;28.00;47.80
64209;DHT22;50527;52.414;13.226;2023-08-20T15:51:55;27.90;48.30
64209;DHT22;50527;52.414;13.226;2023-08-20T15:54:21;28.00;48.90
64209;DHT22;50527;52.414;13.226;2023-08-20T15:56:46;28.00;48.40